createdAt,value
2023-05-08T00:00:39.784Z,11.59
2023-05-08T00:03:07.778Z,11.53
2023-05-08T00:05:37.729Z,11.55
2023-05-08T00:08:06.035Z,11.54
2023-05-08T00:10:33.842Z,11.55
2023-05-08T00:13:01.903Z,11.52
2023-05-08T00:15:29.900Z,11.51
2023-05-08T00:17:57.515Z,11.50
2023-05-08T00:20:25.024Z,11.49
2023-05-08T00:22:52.702Z,11.48
2023-05-08T00:25:20.297Z,11.42
2023-05-08T00:27:47.853Z,11.39
2023-05-08T00:30:15.970Z,11.34
2023-05-08T00:32:44.054Z,11.35
2023-05-08T00:35:11.777Z,11.34
2023-05-08T00:37:41.258Z,11.28
2023-05-08T00:40:10.039Z,11.30
2023-05-08T00:42:38.523Z,11.31
2023-05-08T00:45:07.493Z,11.32
2023-05-08T00:47:35.842Z,11.35
2023-05-08T00:50:03.907Z,11.38
2023-05-08T00:52:32.326Z,11.39
2023-05-08T00:55:01.503Z,11.35
2023-05-08T00:57:30.545Z,11.37
2023-05-08T00:59:59.862Z,11.37
2023-05-08T01:02:28.193Z,11.37
2023-05-08T01:04:56.499Z,11.35
2023-05-08T01:07:24.351Z,11.35
2023-05-08T01:09:51.962Z,11.37
2023-05-08T01:12:38.144Z,11.38
2023-05-08T01:15:08.757Z,11.32
2023-05-08T01:18:08.784Z,11.25
2023-05-08T01:20:42.099Z,11.22
2023-05-08T01:23:31.472Z,11.17
2023-05-08T01:26:26.127Z,11.19
2023-05-08T01:29:05.983Z,11.21
2023-05-08T01:31:42.391Z,11.22
2023-05-08T01:34:17.256Z,11.20
2023-05-08T01:36:50.925Z,11.18
2023-05-08T01:39:20.829Z,11.19
2023-05-08T01:42:09.568Z,11.13
2023-05-08T01:44:39.099Z,11.17
2023-05-08T01:47:07.806Z,11.19
2023-05-08T01:49:47.714Z,11.17
2023-05-08T01:52:18.891Z,11.17
2023-05-08T01:55:08.825Z,11.13
2023-05-08T01:57:42.513Z,11.11
2023-05-08T02:00:10.606Z,11.10
2023-05-08T02:02:39.161Z,11.09
2023-05-08T02:05:08.927Z,11.02
2023-05-08T02:07:38.312Z,10.99
2023-05-08T02:10:06.772Z,10.92
2023-05-08T02:12:34.290Z,10.93
2023-05-08T02:15:02.996Z,10.90
2023-05-08T02:17:31.444Z,10.93
2023-05-08T02:19:59.062Z,10.94
2023-05-08T02:22:26.579Z,10.94
2023-05-08T02:24:55.685Z,10.92
2023-05-08T02:27:23.872Z,10.91
2023-05-08T02:29:51.505Z,10.91
2023-05-08T02:32:19.951Z,10.87
2023-05-08T02:35:01.853Z,10.86
2023-05-08T02:37:30.579Z,10.85
2023-05-08T02:39:58.354Z,10.86
2023-05-08T02:42:26.203Z,10.86
2023-05-08T02:44:53.942Z,10.89
2023-05-08T02:47:27.653Z,10.88
2023-05-08T02:50:00.468Z,10.89
2023-05-08T02:52:28.680Z,10.87
2023-05-08T02:55:00.370Z,10.91
2023-05-08T02:57:32.517Z,10.92
2023-05-08T03:00:03.658Z,10.84
2023-05-08T03:02:38.107Z,10.87
2023-05-08T03:05:10.764Z,10.87
2023-05-08T03:07:38.947Z,10.82
2023-05-08T03:10:10.838Z,10.79
2023-05-08T03:12:42.707Z,10.76
2023-05-08T03:15:19.087Z,10.79
2023-05-08T03:17:46.846Z,10.76
2023-05-08T03:20:15.928Z,10.73
2023-05-08T03:22:43.968Z,10.74
2023-05-08T03:25:12.022Z,10.73
2023-05-08T03:27:40.354Z,10.73
2023-05-08T03:30:09.557Z,10.74
2023-05-08T03:32:39.566Z,10.73
2023-05-08T03:35:07.676Z,10.71
2023-05-08T03:37:35.850Z,10.72
2023-05-08T03:40:03.833Z,10.67
2023-05-08T03:42:32.394Z,10.68
2023-05-08T03:45:00.554Z,10.68
2023-05-08T03:47:29.024Z,10.67
2023-05-08T03:49:57.359Z,10.71
2023-05-08T03:52:26.125Z,10.70
2023-05-08T03:54:54.944Z,10.68
2023-05-08T03:57:23.226Z,10.71
2023-05-08T03:59:54.891Z,10.71
2023-05-08T04:02:33.919Z,10.70
2023-05-08T04:05:10.907Z,10.69
2023-05-08T04:07:49.196Z,10.69
2023-05-08T04:10:22.006Z,10.66
2023-05-08T04:13:16.136Z,10.69
2023-05-08T04:15:52.195Z,10.76
2023-05-08T04:18:28.947Z,10.72
2023-05-08T04:20:59.264Z,10.79
2023-05-08T04:23:27.539Z,10.86
2023-05-08T04:25:55.512Z,10.89
2023-05-08T04:28:23.181Z,10.90
2023-05-08T04:30:51.125Z,10.90
2023-05-08T04:33:19.305Z,10.96
2023-05-08T04:35:47.260Z,10.95
2023-05-08T04:38:15.173Z,10.98
2023-05-08T04:40:43.477Z,10.97
2023-05-08T04:43:12.173Z,11.00
2023-05-08T04:45:39.740Z,10.99
2023-05-08T04:48:07.752Z,11.02
2023-05-08T04:50:35.311Z,11.04
2023-05-08T04:53:02.870Z,11.04
2023-05-08T04:55:30.798Z,11.00
2023-05-08T04:57:58.406Z,11.03
2023-05-08T05:00:26.193Z,11.02
2023-05-08T05:02:54.519Z,11.00
2023-05-08T05:05:22.277Z,11.02
2023-05-08T05:07:50.027Z,11.02
2023-05-08T05:10:19.094Z,11.02
2023-05-08T05:12:48.096Z,11.04
2023-05-08T05:15:15.864Z,11.00
2023-05-08T05:17:44.025Z,10.95
2023-05-08T05:20:12.463Z,11.00
2023-05-08T05:22:40.093Z,11.07
2023-05-08T05:25:09.302Z,11.11
2023-05-08T05:27:37.205Z,11.16
2023-05-08T05:30:07.089Z,11.19
2023-05-08T05:32:35.181Z,11.24
2023-05-08T05:35:03.032Z,11.26
2023-05-08T05:37:30.859Z,11.32
2023-05-08T05:39:58.463Z,11.36
2023-05-08T05:42:26.096Z,11.43
2023-05-08T05:44:57.050Z,11.50
2023-05-08T05:47:25.451Z,11.49
2023-05-08T05:49:53.447Z,11.56
2023-05-08T05:52:21.218Z,11.60
2023-05-08T05:54:49.044Z,11.64
2023-05-08T05:57:16.603Z,11.64
2023-05-08T05:59:44.574Z,11.64
2023-05-08T06:02:18.693Z,11.63
2023-05-08T06:04:51.203Z,11.59
2023-05-08T06:07:18.705Z,11.59
2023-05-08T06:09:46.875Z,11.63
2023-05-08T06:12:14.472Z,11.65
2023-05-08T06:14:42.004Z,11.70
2023-05-08T06:17:10.551Z,11.73
2023-05-08T06:19:38.210Z,11.79
2023-05-08T06:22:06.202Z,11.85
2023-05-08T06:24:34.171Z,11.93
2023-05-08T06:27:02.493Z,11.99
2023-05-08T06:29:30.678Z,12.07
2023-05-08T06:31:58.420Z,12.16
2023-05-08T06:34:25.835Z,12.26
2023-05-08T06:36:53.314Z,12.35
2023-05-08T06:39:20.822Z,12.45
2023-05-08T06:41:49.007Z,12.44
2023-05-08T06:44:24.913Z,12.51
2023-05-08T06:46:52.476Z,12.60
2023-05-08T06:49:19.934Z,12.69
2023-05-08T06:51:47.464Z,12.74
2023-05-08T06:54:15.168Z,12.77
2023-05-08T06:56:42.963Z,12.80
2023-05-08T06:59:10.444Z,12.84
2023-05-08T07:01:38.255Z,12.93
2023-05-08T07:04:06.091Z,13.02
2023-05-08T07:06:34.355Z,13.12
2023-05-08T07:09:02.201Z,13.14
2023-05-08T07:11:29.740Z,13.13
2023-05-08T07:13:57.707Z,13.09
2023-05-08T07:16:25.284Z,13.11
2023-05-08T07:18:52.810Z,13.15
2023-05-08T07:21:21.389Z,13.18
2023-05-08T07:23:51.684Z,13.18
2023-05-08T07:26:19.671Z,13.27
2023-05-08T07:28:47.338Z,13.35
2023-05-08T07:31:14.956Z,13.39
2023-05-08T07:33:42.586Z,13.44
2023-05-08T07:36:10.087Z,13.52
2023-05-08T07:38:38.427Z,13.59
2023-05-08T07:41:07.072Z,13.62
2023-05-08T07:43:34.946Z,13.64
2023-05-08T07:46:02.547Z,13.66
2023-05-08T07:48:31.350Z,13.77
2023-05-08T07:50:58.828Z,13.82
2023-05-08T07:53:26.384Z,13.92
2023-05-08T07:55:54.393Z,13.95
2023-05-08T07:58:23.897Z,14.07
2023-05-08T08:00:51.782Z,14.16
2023-05-08T08:03:19.867Z,14.27
2023-05-08T08:05:47.838Z,14.32
2023-05-08T08:08:15.568Z,14.36
2023-05-08T08:10:43.109Z,14.39
2023-05-08T08:13:10.696Z,14.42
2023-05-08T08:15:38.268Z,14.39
2023-05-08T08:18:05.992Z,14.44
2023-05-08T08:20:33.836Z,14.51
2023-05-08T08:23:01.362Z,14.61
2023-05-08T08:25:29.208Z,14.70
2023-05-08T08:27:56.865Z,14.75
2023-05-08T08:30:24.388Z,14.82
2023-05-08T08:32:52.041Z,14.95
2023-05-08T08:35:19.672Z,14.98
2023-05-08T08:37:47.338Z,15.06
2023-05-08T08:40:14.900Z,15.12
2023-05-08T08:42:42.678Z,15.16
2023-05-08T08:45:11.378Z,15.32
2023-05-08T08:47:41.476Z,15.40
2023-05-08T08:50:11.996Z,15.44
2023-05-08T08:53:01.518Z,15.47
2023-05-08T08:55:29.363Z,15.54
2023-05-08T08:58:00.167Z,15.62
2023-05-08T09:00:29.914Z,15.63
2023-05-08T09:02:57.519Z,15.62
2023-05-08T09:05:26.602Z,15.66
2023-05-08T09:07:55.524Z,15.66
2023-05-08T09:10:24.343Z,15.71
2023-05-08T09:12:52.219Z,15.82
2023-05-08T09:15:19.865Z,15.99
2023-05-08T09:17:47.944Z,16.07
2023-05-08T09:20:18.901Z,16.10
2023-05-08T09:22:46.381Z,16.24
2023-05-08T09:25:14.562Z,16.35
2023-05-08T09:27:42.320Z,16.53
2023-05-08T09:30:11.476Z,16.63
2023-05-08T09:32:43.175Z,16.71
2023-05-08T09:35:11.332Z,16.78
2023-05-08T09:37:43.297Z,16.78
2023-05-08T09:40:17.887Z,16.85
2023-05-08T09:42:47.103Z,16.97
2023-05-08T09:45:41.604Z,17.10
2023-05-08T09:48:11.010Z,17.20
2023-05-08T09:50:39.724Z,17.29
2023-05-08T09:53:07.970Z,17.24
2023-05-08T09:55:48.330Z,17.26
2023-05-08T09:58:15.853Z,17.27
2023-05-08T10:00:43.777Z,17.30
2023-05-08T10:03:11.360Z,17.35
2023-05-08T10:05:39.256Z,17.32
2023-05-08T10:08:20.321Z,17.32
2023-05-08T10:10:48.890Z,17.38
2023-05-08T10:13:16.607Z,17.45
2023-05-08T10:15:44.595Z,17.42
2023-05-08T10:18:12.888Z,17.32
2023-05-08T10:20:41.918Z,17.21
2023-05-08T10:23:14.277Z,17.20
2023-05-08T10:25:43.994Z,17.22
2023-05-08T10:28:33.615Z,17.38
2023-05-08T10:31:01.694Z,17.44
2023-05-08T10:33:31.798Z,17.51
2023-05-08T10:35:59.831Z,17.40
2023-05-08T10:38:27.611Z,17.30
2023-05-08T10:40:58.215Z,17.21
2023-05-08T10:43:25.995Z,17.14
2023-05-08T10:45:54.160Z,17.00
2023-05-08T10:48:27.352Z,17.07
2023-05-08T10:51:13.192Z,17.11
2023-05-08T10:53:43.103Z,17.06
2023-05-08T10:56:10.966Z,17.11
2023-05-08T10:58:41.332Z,17.13
2023-05-08T11:01:09.032Z,17.23
2023-05-08T11:03:47.012Z,17.29
2023-05-08T11:06:15.154Z,17.31
2023-05-08T11:08:48.009Z,17.44
2023-05-08T11:11:38.570Z,17.47
2023-05-08T11:14:09.047Z,17.51
2023-05-08T11:16:59.772Z,17.58
2023-05-08T11:19:27.964Z,17.74
2023-05-08T11:22:14.810Z,17.84
2023-05-08T11:24:57.909Z,17.95
2023-05-08T11:27:50.502Z,18.09
2023-05-08T11:30:18.012Z,18.09
2023-05-08T11:33:04.889Z,18.03
2023-05-08T11:36:18.279Z,17.90
2023-05-08T11:39:22.242Z,18.00
2023-05-08T11:41:49.904Z,18.06
2023-05-08T11:44:19.961Z,18.10
2023-05-08T11:46:51.747Z,18.13
2023-05-08T11:49:26.872Z,18.12
2023-05-08T11:51:58.403Z,18.04
2023-05-08T11:54:26.401Z,17.92
2023-05-08T11:56:57.587Z,17.84
2023-05-08T11:59:25.124Z,17.78
2023-05-08T12:04:23.130Z,17.63
2023-05-08T12:06:51.721Z,17.58
2023-05-08T12:09:20.602Z,17.62
2023-05-08T12:11:51.076Z,17.70
2023-05-08T12:14:18.609Z,17.77
2023-05-08T12:16:46.033Z,17.88
2023-05-08T12:19:13.794Z,17.95
2023-05-08T12:21:51.557Z,17.94
2023-05-08T12:24:23.169Z,17.90
2023-05-08T12:26:54.730Z,17.84
2023-05-08T12:29:22.893Z,17.71
2023-05-08T12:31:50.436Z,17.47
2023-05-08T12:34:17.929Z,17.37
2023-05-08T12:36:45.628Z,17.26
2023-05-08T12:39:13.938Z,17.24
2023-05-08T12:41:43.765Z,17.23
2023-05-08T12:44:23.631Z,17.24
2023-05-08T12:46:55.725Z,17.20
2023-05-08T12:49:30.369Z,17.18
2023-05-08T12:52:08.862Z,17.14
2023-05-08T12:54:54.662Z,17.14
2023-05-08T12:57:22.838Z,17.17
2023-05-08T12:59:50.586Z,17.15
2023-05-08T13:02:21.035Z,17.07
2023-05-08T13:04:48.750Z,17.02
2023-05-08T13:07:16.389Z,17.00
2023-05-08T13:10:04.580Z,16.96
2023-05-08T13:12:32.635Z,16.91
2023-05-08T13:15:01.019Z,16.90
2023-05-08T13:17:28.730Z,16.89
2023-05-08T13:19:56.316Z,16.91
2023-05-08T13:22:26.779Z,16.92
2023-05-08T13:24:54.604Z,16.92
2023-05-08T13:27:22.336Z,17.03
2023-05-08T13:29:49.913Z,17.09
2023-05-08T13:32:17.504Z,17.08
2023-05-08T13:34:50.436Z,17.08
2023-05-08T13:37:18.897Z,17.09
2023-05-08T13:39:46.721Z,17.09
2023-05-08T13:42:14.209Z,17.10
2023-05-08T13:44:41.797Z,17.08
2023-05-08T13:47:09.964Z,17.07
2023-05-08T13:49:37.567Z,16.96
2023-05-08T13:52:05.291Z,16.90
2023-05-08T13:54:33.590Z,16.83
2023-05-08T13:57:02.727Z,16.81
2023-05-08T13:59:31.359Z,16.75
2023-05-08T14:01:59.484Z,16.70
2023-05-08T14:04:27.148Z,16.68
2023-05-08T14:06:54.651Z,16.68
2023-05-08T14:09:22.468Z,16.70
2023-05-08T14:11:50.000Z,16.68
2023-05-08T14:14:18.233Z,16.60
2023-05-08T14:16:45.741Z,16.55
2023-05-08T14:19:13.257Z,16.54
2023-05-08T14:21:40.903Z,16.54
2023-05-08T14:24:09.047Z,16.53
2023-05-08T14:26:36.664Z,16.48
2023-05-08T14:29:04.794Z,16.43
2023-05-08T14:31:32.671Z,16.35
2023-05-08T14:34:00.453Z,16.31
2023-05-08T14:36:27.952Z,16.29
2023-05-08T14:38:55.572Z,16.22
2023-05-08T14:41:28.937Z,16.18
2023-05-08T14:43:56.674Z,16.11
2023-05-08T14:46:24.875Z,16.12
2023-05-08T14:48:53.569Z,16.11
2023-05-08T14:51:21.917Z,16.07
2023-05-08T14:53:50.553Z,16.06
2023-05-08T14:56:18.253Z,15.92
2023-05-08T14:58:46.152Z,15.88
2023-05-08T15:01:13.992Z,15.87
2023-05-08T15:03:41.786Z,15.81
2023-05-08T15:06:09.420Z,15.78
2023-05-08T15:08:37.208Z,15.78
2023-05-08T15:11:04.744Z,15.78
2023-05-08T15:13:32.924Z,15.78
2023-05-08T15:16:00.582Z,15.82
2023-05-08T15:18:28.657Z,15.85
2023-05-08T15:20:57.999Z,15.82
2023-05-08T15:23:28.497Z,15.82
2023-05-08T15:25:56.090Z,15.80
2023-05-08T15:28:23.550Z,15.78
2023-05-08T15:30:51.100Z,15.80
2023-05-08T15:33:18.725Z,15.77
2023-05-08T15:35:46.306Z,15.69
2023-05-08T15:38:13.808Z,15.68
2023-05-08T15:40:41.329Z,15.64
2023-05-08T15:43:09.283Z,15.59
2023-05-08T15:45:36.878Z,15.53
2023-05-08T15:48:04.801Z,15.47
2023-05-08T15:50:32.401Z,15.43
2023-05-08T15:53:00.229Z,15.44
2023-05-08T15:55:27.803Z,15.45
2023-05-08T15:57:55.294Z,15.42
2023-05-08T16:00:25.082Z,15.46
2023-05-08T16:02:54.993Z,15.49
2023-05-08T16:05:22.551Z,15.48
2023-05-08T16:07:51.694Z,15.47
2023-05-08T16:10:19.348Z,15.43
2023-05-08T16:12:47.028Z,15.41
2023-05-08T16:15:14.737Z,15.40
2023-05-08T16:17:42.660Z,15.40
2023-05-08T16:20:13.204Z,15.42
2023-05-08T16:23:00.203Z,15.39
2023-05-08T16:25:27.764Z,15.35
2023-05-08T16:27:55.437Z,15.34
2023-05-08T16:30:23.057Z,15.34
2023-05-08T16:32:50.742Z,15.34
2023-05-08T16:35:19.592Z,15.32
2023-05-08T16:37:47.341Z,15.28
2023-05-08T16:40:14.896Z,15.22
2023-05-08T16:42:42.430Z,15.14
2023-05-08T16:45:10.532Z,15.13
2023-05-08T16:47:38.159Z,15.09
2023-05-08T16:50:05.999Z,15.09
2023-05-08T16:52:33.634Z,15.10
2023-05-08T16:55:01.336Z,15.03
2023-05-08T16:57:28.897Z,14.98
2023-05-08T16:59:56.392Z,14.92
2023-05-08T17:02:24.239Z,14.91
2023-05-08T17:04:51.851Z,14.85
2023-05-08T17:07:20.510Z,14.78
2023-05-08T17:09:53.110Z,14.73
2023-05-08T17:12:20.776Z,14.64
2023-05-08T17:14:49.425Z,14.61
2023-05-08T17:17:16.966Z,14.59
2023-05-08T17:19:44.474Z,14.52
2023-05-08T17:22:13.161Z,14.42
2023-05-08T17:24:40.693Z,14.36
2023-05-08T17:27:08.451Z,14.35
2023-05-08T17:29:35.938Z,14.34
2023-05-08T17:32:03.559Z,14.34
2023-05-08T17:34:30.988Z,14.35
2023-05-08T17:36:58.624Z,14.28
2023-05-08T17:39:26.164Z,14.21
2023-05-08T17:41:54.818Z,14.18
2023-05-08T17:44:22.304Z,14.18
2023-05-08T17:46:49.828Z,14.16
2023-05-08T17:49:19.351Z,14.16
2023-05-08T17:51:47.135Z,14.14
2023-05-08T17:54:14.626Z,14.12
2023-05-08T17:56:42.535Z,14.07
2023-05-08T17:59:09.956Z,14.03
2023-05-08T18:01:37.467Z,14.03
2023-05-08T18:04:05.410Z,14.02
2023-05-08T18:06:33.183Z,13.98
2023-05-08T18:09:00.946Z,13.95
2023-05-08T18:11:28.565Z,13.92
2023-05-08T18:13:56.056Z,13.88
2023-05-08T18:16:23.887Z,13.80
2023-05-08T18:18:52.016Z,13.76
2023-05-08T18:21:19.658Z,13.74
2023-05-08T18:23:47.179Z,13.71
2023-05-08T18:26:15.422Z,13.67
2023-05-08T18:28:43.323Z,13.61
2023-05-08T18:31:11.819Z,13.60
2023-05-08T18:33:39.687Z,13.57
2023-05-08T18:36:07.470Z,13.51
2023-05-08T18:38:35.637Z,13.50
2023-05-08T18:41:04.036Z,13.44
2023-05-08T18:43:32.210Z,13.42
2023-05-08T18:46:00.775Z,13.41
2023-05-08T18:48:29.447Z,13.37
2023-05-08T18:50:58.765Z,13.32
2023-05-08T18:53:26.439Z,13.29
2023-05-08T18:55:54.515Z,13.24
2023-05-08T18:58:22.220Z,13.20
2023-05-08T19:00:49.896Z,13.19
2023-05-08T19:03:18.355Z,13.17
2023-05-08T19:05:46.062Z,13.12
2023-05-08T19:08:15.610Z,13.08
2023-05-08T19:10:43.221Z,13.05
2023-05-08T19:13:10.926Z,13.03
2023-05-08T19:15:38.583Z,13.02
2023-05-08T19:18:06.199Z,13.00
2023-05-08T19:20:34.497Z,12.98
2023-05-08T19:23:02.008Z,12.93
2023-05-08T19:25:29.630Z,12.90
2023-05-08T19:27:58.687Z,12.89
2023-05-08T19:30:26.233Z,12.84
2023-05-08T19:32:53.855Z,12.82
2023-05-08T19:35:21.574Z,12.84
2023-05-08T19:37:49.123Z,12.82
2023-05-08T19:40:16.759Z,12.81
2023-05-08T19:42:45.830Z,12.82
2023-05-08T19:45:13.460Z,12.80
2023-05-08T19:47:41.333Z,12.80
2023-05-08T19:50:12.216Z,12.76
2023-05-08T19:52:39.936Z,12.78
2023-05-08T19:55:08.097Z,12.79
2023-05-08T19:57:35.696Z,12.77
2023-05-08T20:00:03.176Z,12.80
2023-05-08T20:02:33.322Z,12.79
2023-05-08T20:07:31.472Z,12.75
2023-05-08T20:09:59.015Z,12.69
2023-05-08T20:12:26.560Z,12.55
2023-05-08T20:14:54.241Z,12.50
2023-05-08T20:17:21.811Z,12.45
2023-05-08T20:19:49.368Z,12.41
2023-05-08T20:22:16.912Z,12.42
2023-05-08T20:24:44.444Z,12.41
2023-05-08T20:27:12.060Z,12.39
2023-05-08T20:29:39.476Z,12.34
2023-05-08T20:32:08.256Z,12.30
2023-05-08T20:34:36.339Z,12.29
2023-05-08T20:37:03.994Z,12.25
2023-05-08T20:39:31.953Z,12.20
2023-05-08T20:41:59.462Z,12.23
2023-05-08T20:44:26.953Z,12.22
2023-05-08T20:46:54.467Z,12.22
2023-05-08T20:49:21.901Z,12.24
2023-05-08T20:51:49.740Z,12.25
2023-05-08T20:54:17.294Z,12.26
2023-05-08T20:56:44.747Z,12.29
2023-05-08T20:59:12.208Z,12.27
2023-05-08T21:01:39.818Z,12.26
2023-05-08T21:04:07.437Z,12.24
2023-05-08T21:06:34.948Z,12.23
2023-05-08T21:09:03.306Z,12.25
2023-05-08T21:11:32.163Z,12.26
2023-05-08T21:13:59.720Z,12.24
2023-05-08T21:16:27.346Z,12.24
2023-05-08T21:18:57.415Z,12.26
2023-05-08T21:21:25.783Z,12.23
2023-05-08T21:23:53.571Z,12.24
2023-05-08T21:26:23.772Z,12.26
2023-05-08T21:28:53.710Z,12.24
2023-05-08T21:31:21.303Z,12.24
2023-05-08T21:33:48.778Z,12.23
2023-05-08T21:36:16.291Z,12.24
2023-05-08T21:38:43.865Z,12.22
2023-05-08T21:41:11.332Z,12.23
2023-05-08T21:43:39.157Z,12.24
2023-05-08T21:46:07.398Z,12.27
2023-05-08T21:48:35.271Z,12.25
2023-05-08T21:51:02.903Z,12.22
2023-05-08T21:53:30.770Z,12.20
2023-05-08T21:55:59.130Z,12.21
2023-05-08T21:58:26.639Z,12.21
2023-05-08T22:00:54.855Z,12.23
2023-05-08T22:03:23.135Z,12.23
2023-05-08T22:05:50.997Z,12.20
2023-05-08T22:08:18.684Z,12.22
2023-05-08T22:10:46.301Z,12.22
2023-05-08T22:13:15.885Z,12.24
2023-05-08T22:15:43.415Z,12.23
2023-05-08T22:18:10.871Z,12.22
2023-05-08T22:20:38.633Z,12.19
2023-05-08T22:23:06.477Z,12.16
2023-05-08T22:25:33.948Z,12.16
2023-05-08T22:28:01.564Z,12.17
2023-05-08T22:30:29.427Z,12.17
2023-05-08T22:32:57.520Z,12.14
2023-05-08T22:35:26.227Z,12.08
2023-05-08T22:37:54.013Z,12.08
2023-05-08T22:40:21.644Z,12.06
2023-05-08T22:42:51.307Z,12.07
2023-05-08T22:45:19.408Z,12.06
2023-05-08T22:47:46.903Z,12.03
2023-05-08T22:50:14.406Z,12.01
2023-05-08T22:52:42.153Z,12.01
2023-05-08T22:55:10.616Z,12.00
2023-05-08T22:57:38.502Z,12.00
2023-05-08T23:00:07.296Z,11.99
2023-05-08T23:02:35.434Z,11.94
2023-05-08T23:05:03.947Z,11.91
2023-05-08T23:07:31.731Z,11.88
2023-05-08T23:09:59.279Z,11.87
2023-05-08T23:12:26.800Z,11.86
2023-05-08T23:14:54.390Z,11.81
2023-05-08T23:17:22.497Z,11.81
2023-05-08T23:19:49.988Z,11.79
2023-05-08T23:22:17.482Z,11.77
2023-05-08T23:24:45.009Z,11.79
2023-05-08T23:27:12.633Z,11.77
2023-05-08T23:29:40.170Z,11.72
2023-05-08T23:32:07.784Z,11.71
2023-05-08T23:34:35.723Z,11.68
2023-05-08T23:37:03.308Z,11.69
2023-05-08T23:39:33.869Z,11.70
2023-05-08T23:42:01.362Z,11.71
2023-05-08T23:44:29.092Z,11.71
2023-05-08T23:46:56.671Z,11.72
2023-05-08T23:49:24.190Z,11.74
2023-05-08T23:51:51.694Z,11.76
2023-05-08T23:54:19.206Z,11.77
2023-05-08T23:56:46.747Z,11.77
2023-05-08T23:59:14.252Z,11.77
